sensor_id;sensor_type;location;lat;lon;timestamp;P1;durP1;ratioP1;P2;durP2;ratioP2
40755;SDS011;26461;45.630;9.418;2022-11-21T00:00:58;11.18;;;7.90;;
40755;SDS011;26461;45.630;9.418;2022-11-21T00:04:04;8.45;;;5.80;;
40755;SDS011;26461;45.630;9.418;2022-11-21T00:07:10;11.88;;;5.72;;
40755;SDS011;26461;45.630;9.418;2022-11-21T00:10:18;9.98;;;4.90;;
40755;SDS011;26461;45.630;9.418;2022-11-21T00:13:35;8.50;;;7.05;;
40755;SDS011;26461;45.630;9.418;2022-11-21T00:16:46;9.10;;;6.78;;
40755;SDS011;26461;45.630;9.418;2022-11-21T00:19:55;7.72;;;5.32;;
40755;SDS011;26461;45.630;9.418;2022-11-21T00:23:03;7.50;;;5.03;;
40755;SDS011;26461;45.630;9.418;2022-11-21T00:26:13;7.78;;;5.20;;
40755;SDS011;26461;45.630;9.418;2022-11-21T00:29:22;9.27;;;5.80;;
40755;SDS011;26461;45.630;9.418;2022-11-21T00:32:31;10.05;;;4.80;;
40755;SDS011;26461;45.630;9.418;2022-11-21T00:35:39;15.07;;;6.68;;
40755;SDS011;26461;45.630;9.418;2022-11-21T00:38:56;14.13;;;5.25;;
40755;SDS011;26461;45.630;9.418;2022-11-21T00:42:02;13.20;;;7.68;;
40755;SDS011;26461;45.630;9.418;2022-11-21T00:45:07;8.23;;;5.97;;
40755;SDS011;26461;45.630;9.418;2022-11-21T00:48:18;8.75;;;6.00;;
40755;SDS011;26461;45.630;9.418;2022-11-21T00:51:34;19.33;;;6.40;;
40755;SDS011;26461;45.630;9.418;2022-11-21T00:54:39;17.52;;;9.77;;
40755;SDS011;26461;45.630;9.418;2022-11-21T00:57:50;10.48;;;5.70;;
40755;SDS011;26461;45.630;9.418;2022-11-21T01:01:09;11.68;;;6.72;;
40755;SDS011;26461;45.630;9.418;2022-11-21T01:04:19;6.75;;;6.15;;
40755;SDS011;26461;45.630;9.418;2022-11-21T01:07:28;7.85;;;5.80;;
40755;SDS011;26461;45.630;9.418;2022-11-21T01:10:36;9.02;;;6.78;;
40755;SDS011;26461;45.630;9.418;2022-11-21T01:13:51;9.43;;;5.45;;
40755;SDS011;26461;45.630;9.418;2022-11-21T01:17:07;8.65;;;6.25;;
40755;SDS011;26461;45.630;9.418;2022-11-21T01:20:16;10.00;;;4.50;;
40755;SDS011;26461;45.630;9.418;2022-11-21T01:23:29;15.48;;;6.28;;
40755;SDS011;26461;45.630;9.418;2022-11-21T01:26:40;12.77;;;6.82;;
40755;SDS011;26461;45.630;9.418;2022-11-21T01:29:51;11.10;;;5.97;;
40755;SDS011;26461;45.630;9.418;2022-11-21T01:33:08;8.50;;;5.00;;
40755;SDS011;26461;45.630;9.418;2022-11-21T01:36:18;7.47;;;4.72;;
40755;SDS011;26461;45.630;9.418;2022-11-21T01:39:30;7.03;;;5.97;;
40755;SDS011;26461;45.630;9.418;2022-11-21T01:42:51;12.68;;;4.65;;
40755;SDS011;26461;45.630;9.418;2022-11-21T01:46:19;9.63;;;7.05;;
40755;SDS011;26461;45.630;9.418;2022-11-21T01:49:32;11.75;;;6.30;;
40755;SDS011;26461;45.630;9.418;2022-11-21T01:52:42;7.13;;;4.45;;
40755;SDS011;26461;45.630;9.418;2022-11-21T01:55:55;11.50;;;3.83;;
40755;SDS011;26461;45.630;9.418;2022-11-21T01:59:00;16.08;;;4.85;;
40755;SDS011;26461;45.630;9.418;2022-11-21T02:02:09;5.63;;;5.00;;
40755;SDS011;26461;45.630;9.418;2022-11-21T02:05:26;11.15;;;4.75;;
40755;SDS011;26461;45.630;9.418;2022-11-21T02:08:46;8.20;;;4.60;;
40755;SDS011;26461;45.630;9.418;2022-11-21T02:11:58;6.97;;;4.93;;
40755;SDS011;26461;45.630;9.418;2022-11-21T02:15:17;9.73;;;4.47;;
40755;SDS011;26461;45.630;9.418;2022-11-21T02:18:28;8.70;;;5.25;;
40755;SDS011;26461;45.630;9.418;2022-11-21T02:22:01;13.60;;;5.07;;
40755;SDS011;26461;45.630;9.418;2022-11-21T02:25:32;9.07;;;6.15;;
40755;SDS011;26461;45.630;9.418;2022-11-21T02:28:45;6.07;;;4.10;;
40755;SDS011;26461;45.630;9.418;2022-11-21T02:32:01;8.52;;;5.53;;
40755;SDS011;26461;45.630;9.418;2022-11-21T02:35:16;9.07;;;3.90;;
40755;SDS011;26461;45.630;9.418;2022-11-21T02:38:32;8.20;;;4.97;;
40755;SDS011;26461;45.630;9.418;2022-11-21T02:41:51;10.32;;;4.40;;
40755;SDS011;26461;45.630;9.418;2022-11-21T02:45:25;4.75;;;2.85;;
40755;SDS011;26461;45.630;9.418;2022-11-21T02:48:45;12.25;;;4.32;;
40755;SDS011;26461;45.630;9.418;2022-11-21T02:51:56;9.75;;;5.95;;
40755;SDS011;26461;45.630;9.418;2022-11-21T02:55:05;8.15;;;3.60;;
40755;SDS011;26461;45.630;9.418;2022-11-21T02:58:19;6.60;;;3.42;;
40755;SDS011;26461;45.630;9.418;2022-11-21T03:01:24;16.80;;;3.75;;
40755;SDS011;26461;45.630;9.418;2022-11-21T03:04:35;6.68;;;4.35;;
40755;SDS011;26461;45.630;9.418;2022-11-21T03:07:44;5.28;;;3.80;;
40755;SDS011;26461;45.630;9.418;2022-11-21T03:10:50;6.70;;;3.05;;
40755;SDS011;26461;45.630;9.418;2022-11-21T03:13:56;8.45;;;3.20;;
40755;SDS011;26461;45.630;9.418;2022-11-21T03:17:02;8.15;;;3.15;;
40755;SDS011;26461;45.630;9.418;2022-11-21T03:20:14;11.07;;;3.45;;
40755;SDS011;26461;45.630;9.418;2022-11-21T03:23:19;7.07;;;3.25;;
40755;SDS011;26461;45.630;9.418;2022-11-21T03:26:25;7.20;;;3.55;;
40755;SDS011;26461;45.630;9.418;2022-11-21T03:29:33;6.50;;;3.35;;
40755;SDS011;26461;45.630;9.418;2022-11-21T03:32:42;4.30;;;2.97;;
40755;SDS011;26461;45.630;9.418;2022-11-21T03:35:53;5.95;;;4.22;;
40755;SDS011;26461;45.630;9.418;2022-11-21T03:39:13;4.05;;;1.65;;
40755;SDS011;26461;45.630;9.418;2022-11-21T03:42:29;10.65;;;3.05;;
40755;SDS011;26461;45.630;9.418;2022-11-21T03:45:40;12.18;;;3.90;;
40755;SDS011;26461;45.630;9.418;2022-11-21T03:48:56;5.65;;;1.10;;
40755;SDS011;26461;45.630;9.418;2022-11-21T03:52:12;4.95;;;3.58;;
40755;SDS011;26461;45.630;9.418;2022-11-21T03:55:25;5.35;;;3.08;;
40755;SDS011;26461;45.630;9.418;2022-11-21T03:58:33;5.05;;;3.08;;
40755;SDS011;26461;45.630;9.418;2022-11-21T04:01:38;13.10;;;3.47;;
40755;SDS011;26461;45.630;9.418;2022-11-21T04:04:46;4.82;;;2.58;;
40755;SDS011;26461;45.630;9.418;2022-11-21T04:07:59;5.32;;;3.15;;
40755;SDS011;26461;45.630;9.418;2022-11-21T04:11:15;4.25;;;2.75;;
40755;SDS011;26461;45.630;9.418;2022-11-21T04:14:21;5.10;;;3.60;;
40755;SDS011;26461;45.630;9.418;2022-11-21T04:17:26;6.43;;;1.90;;
40755;SDS011;26461;45.630;9.418;2022-11-21T04:20:35;5.50;;;4.70;;
40755;SDS011;26461;45.630;9.418;2022-11-21T04:23:42;15.98;;;4.15;;
40755;SDS011;26461;45.630;9.418;2022-11-21T04:26:50;6.25;;;2.85;;
40755;SDS011;26461;45.630;9.418;2022-11-21T04:29:55;8.45;;;3.08;;
40755;SDS011;26461;45.630;9.418;2022-11-21T04:33:01;4.90;;;3.10;;
40755;SDS011;26461;45.630;9.418;2022-11-21T04:36:17;6.22;;;3.50;;
40755;SDS011;26461;45.630;9.418;2022-11-21T04:39:23;5.20;;;3.03;;
40755;SDS011;26461;45.630;9.418;2022-11-21T04:42:33;6.63;;;2.85;;
40755;SDS011;26461;45.630;9.418;2022-11-21T04:45:44;9.05;;;3.53;;
40755;SDS011;26461;45.630;9.418;2022-11-21T04:48:55;4.82;;;1.33;;
40755;SDS011;26461;45.630;9.418;2022-11-21T04:52:04;7.30;;;4.43;;
40755;SDS011;26461;45.630;9.418;2022-11-21T04:55:14;5.55;;;2.25;;
40755;SDS011;26461;45.630;9.418;2022-11-21T04:58:20;3.30;;;1.55;;
40755;SDS011;26461;45.630;9.418;2022-11-21T05:01:26;5.60;;;2.75;;
40755;SDS011;26461;45.630;9.418;2022-11-21T05:04:32;4.28;;;2.95;;
40755;SDS011;26461;45.630;9.418;2022-11-21T05:07:42;7.28;;;5.18;;
40755;SDS011;26461;45.630;9.418;2022-11-21T05:10:48;5.45;;;2.45;;
40755;SDS011;26461;45.630;9.418;2022-11-21T05:14:12;4.95;;;1.92;;
40755;SDS011;26461;45.630;9.418;2022-11-21T05:17:26;3.53;;;2.03;;
40755;SDS011;26461;45.630;9.418;2022-11-21T05:20:38;3.60;;;2.80;;
40755;SDS011;26461;45.630;9.418;2022-11-21T05:23:49;8.35;;;3.50;;
40755;SDS011;26461;45.630;9.418;2022-11-21T05:27:00;6.07;;;2.97;;
40755;SDS011;26461;45.630;9.418;2022-11-21T05:30:05;12.35;;;2.08;;
40755;SDS011;26461;45.630;9.418;2022-11-21T05:33:12;6.15;;;2.78;;
40755;SDS011;26461;45.630;9.418;2022-11-21T05:36:18;3.90;;;2.20;;
40755;SDS011;26461;45.630;9.418;2022-11-21T05:39:27;8.93;;;3.30;;
40755;SDS011;26461;45.630;9.418;2022-11-21T05:42:38;7.55;;;4.28;;
40755;SDS011;26461;45.630;9.418;2022-11-21T05:46:06;9.80;;;4.05;;
40755;SDS011;26461;45.630;9.418;2022-11-21T05:49:11;6.47;;;3.05;;
40755;SDS011;26461;45.630;9.418;2022-11-21T05:52:26;8.77;;;3.38;;
40755;SDS011;26461;45.630;9.418;2022-11-21T05:55:32;12.32;;;5.28;;
40755;SDS011;26461;45.630;9.418;2022-11-21T05:58:44;8.27;;;3.58;;
40755;SDS011;26461;45.630;9.418;2022-11-21T06:01:53;6.25;;;3.35;;
40755;SDS011;26461;45.630;9.418;2022-11-21T06:05:18;9.20;;;3.47;;
40755;SDS011;26461;45.630;9.418;2022-11-21T06:08:27;10.95;;;2.95;;
40755;SDS011;26461;45.630;9.418;2022-11-21T06:11:44;8.80;;;4.70;;
40755;SDS011;26461;45.630;9.418;2022-11-21T06:14:57;5.90;;;3.30;;
40755;SDS011;26461;45.630;9.418;2022-11-21T06:18:05;7.80;;;4.88;;
40755;SDS011;26461;45.630;9.418;2022-11-21T06:24:32;11.88;;;3.85;;
40755;SDS011;26461;45.630;9.418;2022-11-21T06:27:42;14.52;;;3.83;;
40755;SDS011;26461;45.630;9.418;2022-11-21T06:30:51;8.70;;;4.55;;
40755;SDS011;26461;45.630;9.418;2022-11-21T06:34:02;11.98;;;6.20;;
40755;SDS011;26461;45.630;9.418;2022-11-21T06:37:08;9.32;;;4.43;;
40755;SDS011;26461;45.630;9.418;2022-11-21T06:40:13;9.45;;;5.65;;
40755;SDS011;26461;45.630;9.418;2022-11-21T06:43:24;13.32;;;6.30;;
40755;SDS011;26461;45.630;9.418;2022-11-21T06:46:36;6.13;;;3.97;;
40755;SDS011;26461;45.630;9.418;2022-11-21T06:49:44;9.07;;;4.65;;
40755;SDS011;26461;45.630;9.418;2022-11-21T06:52:57;9.73;;;2.80;;
40755;SDS011;26461;45.630;9.418;2022-11-21T06:56:14;8.38;;;3.25;;
40755;SDS011;26461;45.630;9.418;2022-11-21T06:59:27;7.90;;;2.97;;
40755;SDS011;26461;45.630;9.418;2022-11-21T07:02:33;5.47;;;2.95;;
40755;SDS011;26461;45.630;9.418;2022-11-21T07:05:38;8.77;;;4.30;;
40755;SDS011;26461;45.630;9.418;2022-11-21T07:08:44;7.57;;;3.17;;
40755;SDS011;26461;45.630;9.418;2022-11-21T07:11:50;4.82;;;2.65;;
40755;SDS011;26461;45.630;9.418;2022-11-21T07:14:56;4.55;;;4.30;;
40755;SDS011;26461;45.630;9.418;2022-11-21T07:18:06;8.93;;;4.32;;
40755;SDS011;26461;45.630;9.418;2022-11-21T07:21:17;13.00;;;4.80;;
40755;SDS011;26461;45.630;9.418;2022-11-21T07:24:28;10.00;;;6.57;;
40755;SDS011;26461;45.630;9.418;2022-11-21T07:27:38;11.15;;;9.82;;
40755;SDS011;26461;45.630;9.418;2022-11-21T07:30:49;13.07;;;8.65;;
40755;SDS011;26461;45.630;9.418;2022-11-21T07:33:59;10.48;;;8.20;;
40755;SDS011;26461;45.630;9.418;2022-11-21T07:37:05;7.38;;;6.00;;
40755;SDS011;26461;45.630;9.418;2022-11-21T07:40:17;9.65;;;6.20;;
40755;SDS011;26461;45.630;9.418;2022-11-21T07:43:23;12.10;;;6.90;;
40755;SDS011;26461;45.630;9.418;2022-11-21T07:46:34;8.85;;;4.93;;
40755;SDS011;26461;45.630;9.418;2022-11-21T07:49:44;19.05;;;4.65;;
40755;SDS011;26461;45.630;9.418;2022-11-21T07:52:59;6.30;;;3.28;;
40755;SDS011;26461;45.630;9.418;2022-11-21T07:56:10;9.30;;;6.72;;
40755;SDS011;26461;45.630;9.418;2022-11-21T07:59:16;9.15;;;5.35;;
40755;SDS011;26461;45.630;9.418;2022-11-21T08:02:28;9.30;;;5.15;;
40755;SDS011;26461;45.630;9.418;2022-11-21T08:05:37;9.98;;;6.82;;
40755;SDS011;26461;45.630;9.418;2022-11-21T08:08:44;7.15;;;5.38;;
40755;SDS011;26461;45.630;9.418;2022-11-21T08:11:55;11.15;;;4.85;;
40755;SDS011;26461;45.630;9.418;2022-11-21T08:15:06;7.85;;;5.72;;
40755;SDS011;26461;45.630;9.418;2022-11-21T08:18:13;20.30;;;7.55;;
40755;SDS011;26461;45.630;9.418;2022-11-21T08:21:20;10.32;;;5.20;;
40755;SDS011;26461;45.630;9.418;2022-11-21T08:24:26;11.32;;;5.75;;
40755;SDS011;26461;45.630;9.418;2022-11-21T08:27:31;6.55;;;5.47;;
40755;SDS011;26461;45.630;9.418;2022-11-21T08:30:37;11.40;;;4.90;;
40755;SDS011;26461;45.630;9.418;2022-11-21T08:33:49;11.50;;;5.70;;
40755;SDS011;26461;45.630;9.418;2022-11-21T08:36:59;6.88;;;5.47;;
40755;SDS011;26461;45.630;9.418;2022-11-21T08:40:04;5.07;;;3.97;;
40755;SDS011;26461;45.630;9.418;2022-11-21T08:43:11;7.55;;;6.43;;
40755;SDS011;26461;45.630;9.418;2022-11-21T08:46:21;15.82;;;6.97;;
40755;SDS011;26461;45.630;9.418;2022-11-21T08:49:32;12.77;;;8.65;;
40755;SDS011;26461;45.630;9.418;2022-11-21T08:52:39;13.65;;;9.70;;
40755;SDS011;26461;45.630;9.418;2022-11-21T08:55:50;6.10;;;4.63;;
40755;SDS011;26461;45.630;9.418;2022-11-21T08:58:56;10.73;;;4.95;;
40755;SDS011;26461;45.630;9.418;2022-11-21T09:02:08;14.98;;;7.15;;
40755;SDS011;26461;45.630;9.418;2022-11-21T09:05:20;10.50;;;7.88;;
40755;SDS011;26461;45.630;9.418;2022-11-21T09:08:26;11.38;;;6.35;;
40755;SDS011;26461;45.630;9.418;2022-11-21T09:11:33;13.15;;;5.68;;
40755;SDS011;26461;45.630;9.418;2022-11-21T09:14:41;21.33;;;6.40;;
40755;SDS011;26461;45.630;9.418;2022-11-21T09:18:05;10.77;;;3.45;;
40755;SDS011;26461;45.630;9.418;2022-11-21T09:21:16;6.68;;;3.63;;
40755;SDS011;26461;45.630;9.418;2022-11-21T09:24:23;10.55;;;4.85;;
40755;SDS011;26461;45.630;9.418;2022-11-21T09:27:35;9.88;;;8.00;;
40755;SDS011;26461;45.630;9.418;2022-11-21T09:30:46;10.55;;;6.32;;
40755;SDS011;26461;45.630;9.418;2022-11-21T09:33:51;19.75;;;6.63;;
40755;SDS011;26461;45.630;9.418;2022-11-21T09:36:58;16.52;;;6.63;;
40755;SDS011;26461;45.630;9.418;2022-11-21T09:40:12;16.58;;;6.10;;
40755;SDS011;26461;45.630;9.418;2022-11-21T09:46:41;10.63;;;4.95;;
40755;SDS011;26461;45.630;9.418;2022-11-21T09:49:54;4.88;;;4.43;;
40755;SDS011;26461;45.630;9.418;2022-11-21T09:53:05;14.30;;;6.40;;
40755;SDS011;26461;45.630;9.418;2022-11-21T09:56:23;8.45;;;5.57;;
40755;SDS011;26461;45.630;9.418;2022-11-21T09:59:37;7.95;;;5.00;;
40755;SDS011;26461;45.630;9.418;2022-11-21T10:02:48;9.43;;;6.13;;
40755;SDS011;26461;45.630;9.418;2022-11-21T10:13:22;5.10;;;4.80;;
40755;SDS011;26461;45.630;9.418;2022-11-21T10:17:30;11.05;;;6.45;;
40755;SDS011;26461;45.630;9.418;2022-11-21T10:27:24;14.35;;;7.25;;
40755;SDS011;26461;45.630;9.418;2022-11-21T10:30:44;9.00;;;5.40;;
40755;SDS011;26461;45.630;9.418;2022-11-21T10:33:56;10.48;;;5.68;;
40755;SDS011;26461;45.630;9.418;2022-11-21T10:37:14;8.57;;;4.20;;
40755;SDS011;26461;45.630;9.418;2022-11-21T10:40:39;16.67;;;6.65;;
40755;SDS011;26461;45.630;9.418;2022-11-21T10:47:33;13.82;;;6.63;;
40755;SDS011;26461;45.630;9.418;2022-11-21T10:54:18;6.13;;;4.93;;
40755;SDS011;26461;45.630;9.418;2022-11-21T10:57:42;9.38;;;6.15;;
40755;SDS011;26461;45.630;9.418;2022-11-21T11:00:56;16.00;;;8.32;;
40755;SDS011;26461;45.630;9.418;2022-11-21T11:07:25;19.60;;;6.85;;
40755;SDS011;26461;45.630;9.418;2022-11-21T11:10:39;5.82;;;4.30;;
40755;SDS011;26461;45.630;9.418;2022-11-21T11:14:04;10.63;;;6.20;;
40755;SDS011;26461;45.630;9.418;2022-11-21T11:17:30;16.38;;;7.55;;
40755;SDS011;26461;45.630;9.418;2022-11-21T11:20:42;10.38;;;6.85;;
40755;SDS011;26461;45.630;9.418;2022-11-21T11:24:41;13.77;;;6.60;;
40755;SDS011;26461;45.630;9.418;2022-11-21T11:27:27;13.68;;;7.00;;
40755;SDS011;26461;45.630;9.418;2022-11-21T11:30:35;9.68;;;6.38;;
40755;SDS011;26461;45.630;9.418;2022-11-21T11:40:05;6.22;;;1.58;;
40755;SDS011;26461;45.630;9.418;2022-11-21T11:43:27;4.82;;;2.08;;
40755;SDS011;26461;45.630;9.418;2022-11-21T11:47:19;4.30;;;1.90;;
40755;SDS011;26461;45.630;9.418;2022-11-21T11:50:48;6.82;;;3.38;;
40755;SDS011;26461;45.630;9.418;2022-11-21T11:54:14;3.85;;;1.42;;
40755;SDS011;26461;45.630;9.418;2022-11-21T11:57:25;5.07;;;2.28;;
40755;SDS011;26461;45.630;9.418;2022-11-21T12:00:51;6.85;;;3.08;;
40755;SDS011;26461;45.630;9.418;2022-11-21T12:04:15;11.70;;;2.35;;
40755;SDS011;26461;45.630;9.418;2022-11-21T12:07:27;6.00;;;1.83;;
40755;SDS011;26461;45.630;9.418;2022-11-21T12:11:25;4.13;;;2.55;;
40755;SDS011;26461;45.630;9.418;2022-11-21T12:18:29;5.72;;;2.38;;
40755;SDS011;26461;45.630;9.418;2022-11-21T12:21:46;3.33;;;1.48;;
40755;SDS011;26461;45.630;9.418;2022-11-21T12:24:57;9.02;;;1.30;;
40755;SDS011;26461;45.630;9.418;2022-11-21T12:28:03;7.20;;;1.95;;
40755;SDS011;26461;45.630;9.418;2022-11-21T12:34:55;5.10;;;1.27;;
40755;SDS011;26461;45.630;9.418;2022-11-21T12:41:47;6.18;;;2.53;;
40755;SDS011;26461;45.630;9.418;2022-11-21T12:45:26;5.05;;;2.53;;
40755;SDS011;26461;45.630;9.418;2022-11-21T12:48:52;3.95;;;1.75;;
40755;SDS011;26461;45.630;9.418;2022-11-21T12:52:47;6.00;;;3.55;;
40755;SDS011;26461;45.630;9.418;2022-11-21T12:56:31;4.47;;;3.03;;
40755;SDS011;26461;45.630;9.418;2022-11-21T13:06:40;5.30;;;2.33;;
40755;SDS011;26461;45.630;9.418;2022-11-21T13:09:51;4.95;;;3.50;;
40755;SDS011;26461;45.630;9.418;2022-11-21T13:13:08;7.88;;;2.42;;
40755;SDS011;26461;45.630;9.418;2022-11-21T13:16:37;7.05;;;4.43;;
40755;SDS011;26461;45.630;9.418;2022-11-21T13:20:38;4.95;;;2.25;;
40755;SDS011;26461;45.630;9.418;2022-11-21T13:23:39;6.55;;;2.97;;
40755;SDS011;26461;45.630;9.418;2022-11-21T13:26:46;7.20;;;3.45;;
40755;SDS011;26461;45.630;9.418;2022-11-21T13:36:45;7.85;;;3.60;;
40755;SDS011;26461;45.630;9.418;2022-11-21T13:39:51;15.88;;;2.95;;
40755;SDS011;26461;45.630;9.418;2022-11-21T13:46:55;8.32;;;4.75;;
40755;SDS011;26461;45.630;9.418;2022-11-21T13:57:26;4.60;;;3.30;;
40755;SDS011;26461;45.630;9.418;2022-11-21T14:00:55;6.13;;;2.42;;
40755;SDS011;26461;45.630;9.418;2022-11-21T14:07:42;16.90;;;7.88;;
40755;SDS011;26461;45.630;9.418;2022-11-21T14:10:51;8.50;;;5.38;;
40755;SDS011;26461;45.630;9.418;2022-11-21T14:14:00;7.60;;;6.07;;
40755;SDS011;26461;45.630;9.418;2022-11-21T14:24:54;12.82;;;9.52;;
40755;SDS011;26461;45.630;9.418;2022-11-21T14:28:02;17.15;;;8.60;;
40755;SDS011;26461;45.630;9.418;2022-11-21T14:31:11;9.98;;;6.60;;
40755;SDS011;26461;45.630;9.418;2022-11-21T14:34:26;9.30;;;4.88;;
40755;SDS011;26461;45.630;9.418;2022-11-21T14:37:39;9.40;;;4.93;;
40755;SDS011;26461;45.630;9.418;2022-11-21T14:41:10;12.32;;;3.58;;
40755;SDS011;26461;45.630;9.418;2022-11-21T14:44:41;8.35;;;4.45;;
40755;SDS011;26461;45.630;9.418;2022-11-21T14:47:48;10.63;;;3.90;;
40755;SDS011;26461;45.630;9.418;2022-11-21T14:51:01;7.25;;;2.58;;
40755;SDS011;26461;45.630;9.418;2022-11-21T14:54:19;13.10;;;4.38;;
40755;SDS011;26461;45.630;9.418;2022-11-21T14:57:37;7.00;;;3.25;;
40755;SDS011;26461;45.630;9.418;2022-11-21T15:01:03;7.63;;;3.28;;
40755;SDS011;26461;45.630;9.418;2022-11-21T15:04:34;13.18;;;4.00;;
40755;SDS011;26461;45.630;9.418;2022-11-21T15:07:45;8.50;;;4.70;;
40755;SDS011;26461;45.630;9.418;2022-11-21T15:10:57;6.82;;;3.05;;
40755;SDS011;26461;45.630;9.418;2022-11-21T15:14:05;13.07;;;7.13;;
40755;SDS011;26461;45.630;9.418;2022-11-21T15:17:22;16.00;;;5.60;;
40755;SDS011;26461;45.630;9.418;2022-11-21T15:20:30;13.95;;;5.80;;
40755;SDS011;26461;45.630;9.418;2022-11-21T15:23:36;9.32;;;6.22;;
40755;SDS011;26461;45.630;9.418;2022-11-21T15:26:43;16.48;;;7.43;;
40755;SDS011;26461;45.630;9.418;2022-11-21T15:30:35;13.05;;;8.48;;
40755;SDS011;26461;45.630;9.418;2022-11-21T15:33:21;8.82;;;7.00;;
40755;SDS011;26461;45.630;9.418;2022-11-21T15:36:27;8.00;;;5.93;;
40755;SDS011;26461;45.630;9.418;2022-11-21T15:39:34;7.53;;;5.07;;
40755;SDS011;26461;45.630;9.418;2022-11-21T15:42:41;10.93;;;6.85;;
40755;SDS011;26461;45.630;9.418;2022-11-21T15:45:47;6.22;;;4.72;;
40755;SDS011;26461;45.630;9.418;2022-11-21T15:52:08;9.98;;;8.70;;
40755;SDS011;26461;45.630;9.418;2022-11-21T15:55:17;11.05;;;5.22;;
40755;SDS011;26461;45.630;9.418;2022-11-21T15:58:25;12.43;;;6.32;;
40755;SDS011;26461;45.630;9.418;2022-11-21T16:01:31;10.07;;;5.47;;
40755;SDS011;26461;45.630;9.418;2022-11-21T16:04:37;11.75;;;7.15;;
40755;SDS011;26461;45.630;9.418;2022-11-21T16:07:43;7.32;;;6.20;;
40755;SDS011;26461;45.630;9.418;2022-11-21T16:10:53;11.77;;;6.13;;
40755;SDS011;26461;45.630;9.418;2022-11-21T16:13:59;22.52;;;8.50;;
40755;SDS011;26461;45.630;9.418;2022-11-21T16:17:06;11.85;;;5.20;;
40755;SDS011;26461;45.630;9.418;2022-11-21T16:20:17;13.10;;;8.48;;
40755;SDS011;26461;45.630;9.418;2022-11-21T16:23:27;12.02;;;9.40;;
40755;SDS011;26461;45.630;9.418;2022-11-21T16:26:33;8.25;;;7.10;;
40755;SDS011;26461;45.630;9.418;2022-11-21T16:29:39;16.33;;;6.00;;
40755;SDS011;26461;45.630;9.418;2022-11-21T16:32:44;23.48;;;6.57;;
40755;SDS011;26461;45.630;9.418;2022-11-21T16:35:50;15.07;;;6.20;;
40755;SDS011;26461;45.630;9.418;2022-11-21T16:39:03;13.30;;;6.97;;
40755;SDS011;26461;45.630;9.418;2022-11-21T16:42:08;13.32;;;8.40;;
40755;SDS011;26461;45.630;9.418;2022-11-21T16:45:15;13.20;;;5.55;;
40755;SDS011;26461;45.630;9.418;2022-11-21T16:48:21;14.70;;;8.23;;
40755;SDS011;26461;45.630;9.418;2022-11-21T16:51:32;15.50;;;6.72;;
40755;SDS011;26461;45.630;9.418;2022-11-21T16:54:43;22.52;;;12.75;;
40755;SDS011;26461;45.630;9.418;2022-11-21T16:57:49;15.60;;;8.00;;
40755;SDS011;26461;45.630;9.418;2022-11-21T17:04:18;14.73;;;8.05;;
40755;SDS011;26461;45.630;9.418;2022-11-21T17:07:29;10.20;;;6.13;;
40755;SDS011;26461;45.630;9.418;2022-11-21T17:10:36;15.50;;;8.43;;
40755;SDS011;26461;45.630;9.418;2022-11-21T17:13:47;13.00;;;8.88;;
40755;SDS011;26461;45.630;9.418;2022-11-21T17:16:54;18.38;;;10.82;;
40755;SDS011;26461;45.630;9.418;2022-11-21T17:20:04;12.13;;;9.68;;
40755;SDS011;26461;45.630;9.418;2022-11-21T17:23:18;16.95;;;10.02;;
40755;SDS011;26461;45.630;9.418;2022-11-21T17:26:28;17.38;;;9.52;;
40755;SDS011;26461;45.630;9.418;2022-11-21T17:29:34;21.55;;;15.20;;
40755;SDS011;26461;45.630;9.418;2022-11-21T17:32:44;15.70;;;9.80;;
40755;SDS011;26461;45.630;9.418;2022-11-21T17:35:50;26.52;;;13.38;;
40755;SDS011;26461;45.630;9.418;2022-11-21T17:38:57;22.25;;;15.02;;
40755;SDS011;26461;45.630;9.418;2022-11-21T17:42:04;25.48;;;15.32;;
40755;SDS011;26461;45.630;9.418;2022-11-21T17:45:10;36.20;;;15.35;;
40755;SDS011;26461;45.630;9.418;2022-11-21T17:48:20;23.95;;;15.55;;
40755;SDS011;26461;45.630;9.418;2022-11-21T17:51:31;28.05;;;14.50;;
40755;SDS011;26461;45.630;9.418;2022-11-21T17:54:39;25.90;;;15.43;;
40755;SDS011;26461;45.630;9.418;2022-11-21T17:57:50;23.40;;;17.15;;
40755;SDS011;26461;45.630;9.418;2022-11-21T18:00:56;31.08;;;20.02;;
40755;SDS011;26461;45.630;9.418;2022-11-21T18:04:04;22.73;;;14.77;;
40755;SDS011;26461;45.630;9.418;2022-11-21T18:07:11;21.23;;;16.15;;
40755;SDS011;26461;45.630;9.418;2022-11-21T18:10:16;32.80;;;18.80;;
40755;SDS011;26461;45.630;9.418;2022-11-21T18:13:22;32.00;;;17.60;;
40755;SDS011;26461;45.630;9.418;2022-11-21T18:16:32;46.80;;;26.50;;
40755;SDS011;26461;45.630;9.418;2022-11-21T18:19:44;26.08;;;21.23;;
40755;SDS011;26461;45.630;9.418;2022-11-21T18:22:54;23.85;;;18.48;;
40755;SDS011;26461;45.630;9.418;2022-11-21T18:26:11;35.05;;;23.58;;
40755;SDS011;26461;45.630;9.418;2022-11-21T18:29:22;30.63;;;16.50;;
40755;SDS011;26461;45.630;9.418;2022-11-21T18:32:35;26.83;;;18.83;;
40755;SDS011;26461;45.630;9.418;2022-11-21T18:35:42;33.65;;;22.42;;
40755;SDS011;26461;45.630;9.418;2022-11-21T18:38:48;34.88;;;17.48;;
40755;SDS011;26461;45.630;9.418;2022-11-21T18:41:57;46.38;;;20.58;;
40755;SDS011;26461;45.630;9.418;2022-11-21T18:45:08;36.22;;;22.85;;
40755;SDS011;26461;45.630;9.418;2022-11-21T18:48:20;43.47;;;24.30;;
40755;SDS011;26461;45.630;9.418;2022-11-21T18:51:28;35.42;;;21.52;;
40755;SDS011;26461;45.630;9.418;2022-11-21T18:54:35;32.85;;;20.63;;
40755;SDS011;26461;45.630;9.418;2022-11-21T18:57:43;31.83;;;21.95;;
40755;SDS011;26461;45.630;9.418;2022-11-21T19:00:48;28.55;;;19.60;;
40755;SDS011;26461;45.630;9.418;2022-11-21T19:03:59;30.55;;;18.73;;
40755;SDS011;26461;45.630;9.418;2022-11-21T19:07:04;26.38;;;15.90;;
40755;SDS011;26461;45.630;9.418;2022-11-21T19:10:10;42.83;;;25.85;;
40755;SDS011;26461;45.630;9.418;2022-11-21T19:13:23;32.10;;;23.92;;
40755;SDS011;26461;45.630;9.418;2022-11-21T19:16:29;33.83;;;25.73;;
40755;SDS011;26461;45.630;9.418;2022-11-21T19:19:37;38.28;;;18.20;;
40755;SDS011;26461;45.630;9.418;2022-11-21T19:22:48;24.00;;;19.38;;
40755;SDS011;26461;45.630;9.418;2022-11-21T19:26:06;35.30;;;21.25;;
40755;SDS011;26461;45.630;9.418;2022-11-21T19:29:18;32.75;;;20.42;;
40755;SDS011;26461;45.630;9.418;2022-11-21T19:32:25;24.05;;;15.27;;
40755;SDS011;26461;45.630;9.418;2022-11-21T19:35:37;22.05;;;20.23;;
40755;SDS011;26461;45.630;9.418;2022-11-21T19:38:43;27.48;;;22.20;;
40755;SDS011;26461;45.630;9.418;2022-11-21T19:41:55;31.17;;;20.88;;
40755;SDS011;26461;45.630;9.418;2022-11-21T19:45:02;28.73;;;24.92;;
40755;SDS011;26461;45.630;9.418;2022-11-21T19:48:10;31.88;;;21.92;;
40755;SDS011;26461;45.630;9.418;2022-11-21T19:51:18;42.80;;;26.65;;
40755;SDS011;26461;45.630;9.418;2022-11-21T19:54:25;34.55;;;17.85;;
40755;SDS011;26461;45.630;9.418;2022-11-21T19:57:36;41.60;;;25.80;;
40755;SDS011;26461;45.630;9.418;2022-11-21T20:00:41;33.88;;;22.10;;
40755;SDS011;26461;45.630;9.418;2022-11-21T20:03:54;26.85;;;23.38;;
40755;SDS011;26461;45.630;9.418;2022-11-21T20:07:08;32.42;;;24.45;;
40755;SDS011;26461;45.630;9.418;2022-11-21T20:10:16;25.92;;;17.88;;
40755;SDS011;26461;45.630;9.418;2022-11-21T20:13:34;39.85;;;21.33;;
40755;SDS011;26461;45.630;9.418;2022-11-21T20:16:52;30.50;;;17.27;;
40755;SDS011;26461;45.630;9.418;2022-11-21T20:20:01;26.98;;;19.65;;
40755;SDS011;26461;45.630;9.418;2022-11-21T20:23:13;37.78;;;19.85;;
40755;SDS011;26461;45.630;9.418;2022-11-21T20:26:21;26.05;;;18.42;;
40755;SDS011;26461;45.630;9.418;2022-11-21T20:29:28;28.48;;;19.30;;
40755;SDS011;26461;45.630;9.418;2022-11-21T20:32:37;29.67;;;17.65;;
40755;SDS011;26461;45.630;9.418;2022-11-21T20:36:01;32.47;;;20.88;;